sensor_id;sensor_type;location;lat;lon;timestamp;temperature;humidity
35531;DHT22;21637;53.352;-6.356;2024-01-15T00:00:06;1.70;99.90
35531;DHT22;21637;53.352;-6.356;2024-01-15T00:02:31;1.70;99.90
35531;DHT22;21637;53.352;-6.356;2024-01-15T00:04:57;1.70;99.90
35531;DHT22;21637;53.352;-6.356;2024-01-15T00:07:23;1.60;99.90
35531;DHT22;21637;53.352;-6.356;2024-01-15T00:09:48;1.60;99.90
35531;DHT22;21637;53.352;-6.356;2024-01-15T00:12:14;1.50;99.90
35531;DHT22;21637;53.352;-6.356;2024-01-15T00:14:40;1.50;99.90
35531;DHT22;21637;53.352;-6.356;2024-01-15T00:17:06;1.50;99.90
35531;DHT22;21637;53.352;-6.356;2024-01-15T00:19:31;1.60;99.90
35531;DHT22;21637;53.352;-6.356;2024-01-15T00:21:58;1.60;99.90
35531;DHT22;21637;53.352;-6.356;2024-01-15T00:24:24;1.60;99.90
35531;DHT22;21637;53.352;-6.356;2024-01-15T00:26:50;1.60;99.90
35531;DHT22;21637;53.352;-6.356;2024-01-15T00:29:16;1.50;99.90
35531;DHT22;21637;53.352;-6.356;2024-01-15T00:31:42;1.50;99.90
35531;DHT22;21637;53.352;-6.356;2024-01-15T00:34:07;1.40;99.90
35531;DHT22;21637;53.352;-6.356;2024-01-15T00:36:33;1.50;99.90
35531;DHT22;21637;53.352;-6.356;2024-01-15T00:38:59;1.40;99.90
35531;DHT22;21637;53.352;-6.356;2024-01-15T00:41:24;1.40;99.90
35531;DHT22;21637;53.352;-6.356;2024-01-15T00:43:53;1.30;99.90
35531;DHT22;21637;53.352;-6.356;2024-01-15T00:46:18;1.30;99.90
35531;DHT22;21637;53.352;-6.356;2024-01-15T00:48:44;1.40;99.90
35531;DHT22;21637;53.352;-6.356;2024-01-15T00:51:10;1.30;99.90
35531;DHT22;21637;53.352;-6.356;2024-01-15T00:53:36;1.40;99.90
35531;DHT22;21637;53.352;-6.356;2024-01-15T00:56:02;1.30;99.90
35531;DHT22;21637;53.352;-6.356;2024-01-15T00:58:28;1.30;99.90
35531;DHT22;21637;53.352;-6.356;2024-01-15T01:00:54;1.30;99.90
35531;DHT22;21637;53.352;-6.356;2024-01-15T01:03:20;1.40;99.90
35531;DHT22;21637;53.352;-6.356;2024-01-15T01:05:48;1.30;99.90
35531;DHT22;21637;53.352;-6.356;2024-01-15T01:08:15;1.30;99.90
35531;DHT22;21637;53.352;-6.356;2024-01-15T01:10:41;1.30;99.90
35531;DHT22;21637;53.352;-6.356;2024-01-15T01:13:08;1.30;99.90
35531;DHT22;21637;53.352;-6.356;2024-01-15T01:15:34;1.30;99.90
35531;DHT22;21637;53.352;-6.356;2024-01-15T01:18:00;1.30;99.90
35531;DHT22;21637;53.352;-6.356;2024-01-15T01:20:25;1.30;99.90
35531;DHT22;21637;53.352;-6.356;2024-01-15T01:22:51;1.30;99.90
35531;DHT22;21637;53.352;-6.356;2024-01-15T01:25:17;1.20;99.90
35531;DHT22;21637;53.352;-6.356;2024-01-15T01:27:42;1.20;99.90
35531;DHT22;21637;53.352;-6.356;2024-01-15T01:30:09;1.20;99.90
35531;DHT22;21637;53.352;-6.356;2024-01-15T01:32:35;1.20;99.90
35531;DHT22;21637;53.352;-6.356;2024-01-15T01:35:01;1.20;99.90
35531;DHT22;21637;53.352;-6.356;2024-01-15T01:37:26;1.10;99.90
35531;DHT22;21637;53.352;-6.356;2024-01-15T01:39:52;1.10;99.90
35531;DHT22;21637;53.352;-6.356;2024-01-15T01:42:18;1.10;99.90
35531;DHT22;21637;53.352;-6.356;2024-01-15T01:44:43;1.10;99.90
35531;DHT22;21637;53.352;-6.356;2024-01-15T01:47:09;1.00;99.90
35531;DHT22;21637;53.352;-6.356;2024-01-15T01:49:35;1.10;99.90
35531;DHT22;21637;53.352;-6.356;2024-01-15T01:52:02;1.00;99.90
35531;DHT22;21637;53.352;-6.356;2024-01-15T01:54:31;1.00;99.90
35531;DHT22;21637;53.352;-6.356;2024-01-15T01:56:58;1.00;99.90
35531;DHT22;21637;53.352;-6.356;2024-01-15T01:59:26;1.00;99.90
35531;DHT22;21637;53.352;-6.356;2024-01-15T02:01:54;1.00;99.90
35531;DHT22;21637;53.352;-6.356;2024-01-15T02:04:21;0.90;99.90
35531;DHT22;21637;53.352;-6.356;2024-01-15T02:06:48;0.90;99.90
35531;DHT22;21637;53.352;-6.356;2024-01-15T02:09:14;1.00;99.90
35531;DHT22;21637;53.352;-6.356;2024-01-15T02:11:41;1.00;99.90
35531;DHT22;21637;53.352;-6.356;2024-01-15T02:14:09;1.00;99.90
35531;DHT22;21637;53.352;-6.356;2024-01-15T02:16:35;1.00;99.90
35531;DHT22;21637;53.352;-6.356;2024-01-15T02:19:00;1.00;99.90
35531;DHT22;21637;53.352;-6.356;2024-01-15T02:21:26;1.00;99.90
35531;DHT22;21637;53.352;-6.356;2024-01-15T02:23:54;1.10;99.90
35531;DHT22;21637;53.352;-6.356;2024-01-15T02:26:21;1.00;99.90
35531;DHT22;21637;53.352;-6.356;2024-01-15T02:28:47;1.10;99.90
35531;DHT22;21637;53.352;-6.356;2024-01-15T02:31:13;1.00;99.90
35531;DHT22;21637;53.352;-6.356;2024-01-15T02:33:39;1.00;99.90
35531;DHT22;21637;53.352;-6.356;2024-01-15T02:36:05;1.10;99.90
35531;DHT22;21637;53.352;-6.356;2024-01-15T02:38:31;1.10;99.90
35531;DHT22;21637;53.352;-6.356;2024-01-15T02:40:57;1.00;99.90
35531;DHT22;21637;53.352;-6.356;2024-01-15T02:43:23;1.10;99.90
35531;DHT22;21637;53.352;-6.356;2024-01-15T02:45:48;1.00;99.90
35531;DHT22;21637;53.352;-6.356;2024-01-15T02:48:14;1.00;99.90
35531;DHT22;21637;53.352;-6.356;2024-01-15T02:50:40;1.00;99.90
35531;DHT22;21637;53.352;-6.356;2024-01-15T02:53:05;1.00;99.90
35531;DHT22;21637;53.352;-6.356;2024-01-15T02:55:31;1.00;99.90
35531;DHT22;21637;53.352;-6.356;2024-01-15T02:57:57;1.00;99.90
35531;DHT22;21637;53.352;-6.356;2024-01-15T03:00:23;0.90;99.90
35531;DHT22;21637;53.352;-6.356;2024-01-15T03:02:50;0.90;99.90
35531;DHT22;21637;53.352;-6.356;2024-01-15T03:05:16;0.90;99.90
35531;DHT22;21637;53.352;-6.356;2024-01-15T03:07:42;1.00;99.90
35531;DHT22;21637;53.352;-6.356;2024-01-15T03:10:09;0.90;99.90
35531;DHT22;21637;53.352;-6.356;2024-01-15T03:12:35;1.00;99.90
35531;DHT22;21637;53.352;-6.356;2024-01-15T03:15:01;1.00;99.90
35531;DHT22;21637;53.352;-6.356;2024-01-15T03:17:26;0.90;99.90
35531;DHT22;21637;53.352;-6.356;2024-01-15T03:19:52;0.90;99.90
35531;DHT22;21637;53.352;-6.356;2024-01-15T03:22:18;1.00;99.90
35531;DHT22;21637;53.352;-6.356;2024-01-15T03:24:44;1.00;99.90
35531;DHT22;21637;53.352;-6.356;2024-01-15T03:27:10;0.90;99.90
35531;DHT22;21637;53.352;-6.356;2024-01-15T03:29:36;1.00;99.90
35531;DHT22;21637;53.352;-6.356;2024-01-15T03:32:01;1.00;99.90
35531;DHT22;21637;53.352;-6.356;2024-01-15T03:34:27;1.00;99.90
35531;DHT22;21637;53.352;-6.356;2024-01-15T03:36:53;1.00;99.90
35531;DHT22;21637;53.352;-6.356;2024-01-15T03:39:19;1.00;99.90
35531;DHT22;21637;53.352;-6.356;2024-01-15T03:41:44;1.00;99.90
35531;DHT22;21637;53.352;-6.356;2024-01-15T03:44:10;1.00;99.90
35531;DHT22;21637;53.352;-6.356;2024-01-15T03:46:36;1.00;99.90
35531;DHT22;21637;53.352;-6.356;2024-01-15T03:49:02;1.00;99.90
35531;DHT22;21637;53.352;-6.356;2024-01-15T03:51:27;1.10;99.90
35531;DHT22;21637;53.352;-6.356;2024-01-15T03:53:53;1.10;99.90
35531;DHT22;21637;53.352;-6.356;2024-01-15T03:56:19;1.10;99.90
35531;DHT22;21637;53.352;-6.356;2024-01-15T03:58:45;1.00;99.90
35531;DHT22;21637;53.352;-6.356;2024-01-15T04:01:11;1.00;99.90
35531;DHT22;21637;53.352;-6.356;2024-01-15T04:03:37;1.00;99.90
35531;DHT22;21637;53.352;-6.356;2024-01-15T04:06:04;1.10;99.90
35531;DHT22;21637;53.352;-6.356;2024-01-15T04:08:30;1.00;99.90
35531;DHT22;21637;53.352;-6.356;2024-01-15T04:10:55;1.00;99.90
35531;DHT22;21637;53.352;-6.356;2024-01-15T04:13:21;1.00;99.90
35531;DHT22;21637;53.352;-6.356;2024-01-15T04:15:47;1.00;99.90
35531;DHT22;21637;53.352;-6.356;2024-01-15T04:18:13;1.00;99.90
35531;DHT22;21637;53.352;-6.356;2024-01-15T04:20:39;1.00;99.90
35531;DHT22;21637;53.352;-6.356;2024-01-15T04:23:05;1.00;99.90
35531;DHT22;21637;53.352;-6.356;2024-01-15T04:25:31;1.00;99.90
35531;DHT22;21637;53.352;-6.356;2024-01-15T04:27:56;0.90;99.90
35531;DHT22;21637;53.352;-6.356;2024-01-15T04:30:22;0.90;99.90
35531;DHT22;21637;53.352;-6.356;2024-01-15T04:32:48;1.00;99.90
35531;DHT22;21637;53.352;-6.356;2024-01-15T04:35:14;1.00;99.90
35531;DHT22;21637;53.352;-6.356;2024-01-15T04:37:40;0.90;99.90
35531;DHT22;21637;53.352;-6.356;2024-01-15T04:40:06;0.90;99.90
35531;DHT22;21637;53.352;-6.356;2024-01-15T04:42:32;0.90;99.90
35531;DHT22;21637;53.352;-6.356;2024-01-15T04:44:58;0.90;99.90
35531;DHT22;21637;53.352;-6.356;2024-01-15T04:47:24;0.90;99.90
35531;DHT22;21637;53.352;-6.356;2024-01-15T04:49:50;0.90;99.90
35531;DHT22;21637;53.352;-6.356;2024-01-15T04:52:16;0.80;99.90
35531;DHT22;21637;53.352;-6.356;2024-01-15T04:54:42;0.80;99.90
35531;DHT22;21637;53.352;-6.356;2024-01-15T04:57:08;0.70;99.90
35531;DHT22;21637;53.352;-6.356;2024-01-15T04:59:33;0.70;99.90
35531;DHT22;21637;53.352;-6.356;2024-01-15T05:01:59;0.70;99.90
35531;DHT22;21637;53.352;-6.356;2024-01-15T05:04:25;0.70;99.90
35531;DHT22;21637;53.352;-6.356;2024-01-15T05:06:51;0.70;99.90
35531;DHT22;21637;53.352;-6.356;2024-01-15T05:09:16;0.60;99.90
35531;DHT22;21637;53.352;-6.356;2024-01-15T05:11:43;0.60;99.90
35531;DHT22;21637;53.352;-6.356;2024-01-15T05:14:09;0.50;99.90
35531;DHT22;21637;53.352;-6.356;2024-01-15T05:16:35;0.50;99.90
35531;DHT22;21637;53.352;-6.356;2024-01-15T05:19:03;0.50;99.90
35531;DHT22;21637;53.352;-6.356;2024-01-15T05:21:29;0.50;99.90
35531;DHT22;21637;53.352;-6.356;2024-01-15T05:23:55;0.50;99.90
35531;DHT22;21637;53.352;-6.356;2024-01-15T05:26:20;0.40;99.90
35531;DHT22;21637;53.352;-6.356;2024-01-15T05:28:46;0.40;99.90
35531;DHT22;21637;53.352;-6.356;2024-01-15T05:31:12;0.50;99.90
35531;DHT22;21637;53.352;-6.356;2024-01-15T05:33:38;0.40;99.90
35531;DHT22;21637;53.352;-6.356;2024-01-15T05:36:04;0.40;99.90
35531;DHT22;21637;53.352;-6.356;2024-01-15T05:38:29;0.30;99.90
35531;DHT22;21637;53.352;-6.356;2024-01-15T05:40:55;0.30;99.90
35531;DHT22;21637;53.352;-6.356;2024-01-15T05:43:21;0.30;99.90
35531;DHT22;21637;53.352;-6.356;2024-01-15T05:45:46;0.30;99.90
35531;DHT22;21637;53.352;-6.356;2024-01-15T05:48:12;0.30;99.90
35531;DHT22;21637;53.352;-6.356;2024-01-15T05:50:38;0.30;99.90
35531;DHT22;21637;53.352;-6.356;2024-01-15T05:53:04;0.30;99.90
35531;DHT22;21637;53.352;-6.356;2024-01-15T05:55:30;0.30;99.90
35531;DHT22;21637;53.352;-6.356;2024-01-15T05:57:56;0.30;99.90
35531;DHT22;21637;53.352;-6.356;2024-01-15T06:00:22;0.30;99.90
35531;DHT22;21637;53.352;-6.356;2024-01-15T06:02:47;0.40;99.90
35531;DHT22;21637;53.352;-6.356;2024-01-15T06:05:13;0.30;99.90
35531;DHT22;21637;53.352;-6.356;2024-01-15T06:07:39;0.30;99.90
35531;DHT22;21637;53.352;-6.356;2024-01-15T06:10:05;0.30;99.90
35531;DHT22;21637;53.352;-6.356;2024-01-15T06:12:31;0.30;99.90
35531;DHT22;21637;53.352;-6.356;2024-01-15T06:14:59;0.20;99.90
35531;DHT22;21637;53.352;-6.356;2024-01-15T06:17:24;0.20;99.90
35531;DHT22;21637;53.352;-6.356;2024-01-15T06:19:50;0.20;99.90
35531;DHT22;21637;53.352;-6.356;2024-01-15T06:22:16;0.20;99.90
35531;DHT22;21637;53.352;-6.356;2024-01-15T06:24:41;0.20;99.90
35531;DHT22;21637;53.352;-6.356;2024-01-15T06:27:08;0.20;99.90
35531;DHT22;21637;53.352;-6.356;2024-01-15T06:29:37;0.20;99.90
35531;DHT22;21637;53.352;-6.356;2024-01-15T06:32:03;0.20;99.90
35531;DHT22;21637;53.352;-6.356;2024-01-15T06:34:28;0.10;99.90
35531;DHT22;21637;53.352;-6.356;2024-01-15T06:36:54;0.10;99.90
35531;DHT22;21637;53.352;-6.356;2024-01-15T06:39:20;0.00;99.90
35531;DHT22;21637;53.352;-6.356;2024-01-15T06:41:46;0.10;99.90
35531;DHT22;21637;53.352;-6.356;2024-01-15T06:44:11;0.10;99.90
35531;DHT22;21637;53.352;-6.356;2024-01-15T06:46:44;0.10;99.90
35531;DHT22;21637;53.352;-6.356;2024-01-15T06:49:10;0.10;99.90
35531;DHT22;21637;53.352;-6.356;2024-01-15T06:51:36;0.10;99.90
35531;DHT22;21637;53.352;-6.356;2024-01-15T06:54:02;0.10;99.90
35531;DHT22;21637;53.352;-6.356;2024-01-15T06:56:28;0.10;99.90
35531;DHT22;21637;53.352;-6.356;2024-01-15T06:58:54;0.10;99.90
35531;DHT22;21637;53.352;-6.356;2024-01-15T07:01:19;0.10;99.90
35531;DHT22;21637;53.352;-6.356;2024-01-15T07:03:45;0.10;99.90
35531;DHT22;21637;53.352;-6.356;2024-01-15T07:06:11;0.00;99.90
35531;DHT22;21637;53.352;-6.356;2024-01-15T07:08:39;0.00;99.90
35531;DHT22;21637;53.352;-6.356;2024-01-15T07:11:05;0.00;99.90
35531;DHT22;21637;53.352;-6.356;2024-01-15T07:13:31;0.00;99.90
35531;DHT22;21637;53.352;-6.356;2024-01-15T07:15:56;0.00;99.90
35531;DHT22;21637;53.352;-6.356;2024-01-15T07:18:23;-0.10;99.90
35531;DHT22;21637;53.352;-6.356;2024-01-15T07:20:49;0.00;99.90
35531;DHT22;21637;53.352;-6.356;2024-01-15T07:23:14;-0.10;99.90
35531;DHT22;21637;53.352;-6.356;2024-01-15T07:25:40;0.00;99.90
35531;DHT22;21637;53.352;-6.356;2024-01-15T07:28:06;-0.10;99.90
35531;DHT22;21637;53.352;-6.356;2024-01-15T07:30:32;-0.20;99.90
35531;DHT22;21637;53.352;-6.356;2024-01-15T07:32:57;-0.20;99.90
35531;DHT22;21637;53.352;-6.356;2024-01-15T07:35:23;-0.20;99.90
35531;DHT22;21637;53.352;-6.356;2024-01-15T07:37:49;-0.20;99.90
35531;DHT22;21637;53.352;-6.356;2024-01-15T07:40:15;-0.20;99.90
35531;DHT22;21637;53.352;-6.356;2024-01-15T07:42:40;-0.20;99.90
35531;DHT22;21637;53.352;-6.356;2024-01-15T07:45:09;-0.20;99.90
35531;DHT22;21637;53.352;-6.356;2024-01-15T07:47:35;-0.20;99.90
35531;DHT22;21637;53.352;-6.356;2024-01-15T07:50:01;-0.20;99.90
35531;DHT22;21637;53.352;-6.356;2024-01-15T07:52:26;-0.20;99.90
35531;DHT22;21637;53.352;-6.356;2024-01-15T07:54:55;-0.20;99.90
35531;DHT22;21637;53.352;-6.356;2024-01-15T07:57:21;-0.20;99.90
35531;DHT22;21637;53.352;-6.356;2024-01-15T07:59:47;-0.20;99.90
35531;DHT22;21637;53.352;-6.356;2024-01-15T08:02:12;-0.20;99.90
35531;DHT22;21637;53.352;-6.356;2024-01-15T08:04:38;-0.20;99.90
35531;DHT22;21637;53.352;-6.356;2024-01-15T08:07:04;-0.20;99.90
35531;DHT22;21637;53.352;-6.356;2024-01-15T08:09:31;-0.20;99.90
35531;DHT22;21637;53.352;-6.356;2024-01-15T08:11:57;-0.20;99.90
35531;DHT22;21637;53.352;-6.356;2024-01-15T08:14:22;-0.10;99.90
35531;DHT22;21637;53.352;-6.356;2024-01-15T08:16:48;-0.10;99.90
35531;DHT22;21637;53.352;-6.356;2024-01-15T08:19:14;-0.10;99.90
35531;DHT22;21637;53.352;-6.356;2024-01-15T08:21:40;0.00;99.90
35531;DHT22;21637;53.352;-6.356;2024-01-15T08:24:06;-0.10;99.90
35531;DHT22;21637;53.352;-6.356;2024-01-15T08:26:32;-0.10;99.90
35531;DHT22;21637;53.352;-6.356;2024-01-15T08:28:58;-0.10;99.90
35531;DHT22;21637;53.352;-6.356;2024-01-15T08:31:24;-0.10;99.90
35531;DHT22;21637;53.352;-6.356;2024-01-15T08:33:50;-0.10;99.90
35531;DHT22;21637;53.352;-6.356;2024-01-15T08:36:15;0.00;99.90
35531;DHT22;21637;53.352;-6.356;2024-01-15T08:38:41;-0.10;99.90
35531;DHT22;21637;53.352;-6.356;2024-01-15T08:41:07;-0.10;99.90
35531;DHT22;21637;53.352;-6.356;2024-01-15T08:43:34;-0.10;99.90
35531;DHT22;21637;53.352;-6.356;2024-01-15T08:46:00;-0.20;99.90
35531;DHT22;21637;53.352;-6.356;2024-01-15T08:48:26;-0.10;99.90
35531;DHT22;21637;53.352;-6.356;2024-01-15T08:50:53;-0.10;99.90
35531;DHT22;21637;53.352;-6.356;2024-01-15T08:53:20;-0.20;99.90
35531;DHT22;21637;53.352;-6.356;2024-01-15T08:55:46;-0.10;99.90
35531;DHT22;21637;53.352;-6.356;2024-01-15T08:58:11;-0.20;99.90
35531;DHT22;21637;53.352;-6.356;2024-01-15T09:00:37;-0.20;99.90
35531;DHT22;21637;53.352;-6.356;2024-01-15T09:03:04;-0.10;99.90
35531;DHT22;21637;53.352;-6.356;2024-01-15T09:05:30;-0.10;99.90
35531;DHT22;21637;53.352;-6.356;2024-01-15T09:07:56;0.00;99.90
35531;DHT22;21637;53.352;-6.356;2024-01-15T09:10:21;0.10;99.90
35531;DHT22;21637;53.352;-6.356;2024-01-15T09:12:47;0.10;99.90
35531;DHT22;21637;53.352;-6.356;2024-01-15T09:15:14;0.10;99.90
35531;DHT22;21637;53.352;-6.356;2024-01-15T09:17:40;0.10;99.90
35531;DHT22;21637;53.352;-6.356;2024-01-15T09:20:07;0.20;99.90
35531;DHT22;21637;53.352;-6.356;2024-01-15T09:22:33;0.20;99.90
35531;DHT22;21637;53.352;-6.356;2024-01-15T09:24:59;0.30;99.90
35531;DHT22;21637;53.352;-6.356;2024-01-15T09:27:25;0.30;99.90
35531;DHT22;21637;53.352;-6.356;2024-01-15T09:29:54;0.30;99.90
35531;DHT22;21637;53.352;-6.356;2024-01-15T09:32:19;0.40;99.90
35531;DHT22;21637;53.352;-6.356;2024-01-15T09:34:48;0.50;99.90
35531;DHT22;21637;53.352;-6.356;2024-01-15T09:37:14;0.50;99.90
35531;DHT22;21637;53.352;-6.356;2024-01-15T09:39:41;0.60;99.90
35531;DHT22;21637;53.352;-6.356;2024-01-15T09:42:07;0.60;99.90
35531;DHT22;21637;53.352;-6.356;2024-01-15T09:44:33;0.60;99.90
35531;DHT22;21637;53.352;-6.356;2024-01-15T09:46:59;0.70;99.90
35531;DHT22;21637;53.352;-6.356;2024-01-15T09:49:25;0.70;99.90
35531;DHT22;21637;53.352;-6.356;2024-01-15T09:51:51;0.70;99.90
35531;DHT22;21637;53.352;-6.356;2024-01-15T09:54:17;0.70;99.90
35531;DHT22;21637;53.352;-6.356;2024-01-15T09:56:47;0.80;99.90
35531;DHT22;21637;53.352;-6.356;2024-01-15T09:59:17;0.70;99.90
35531;DHT22;21637;53.352;-6.356;2024-01-15T10:01:47;0.70;99.90
35531;DHT22;21637;53.352;-6.356;2024-01-15T10:04:15;0.70;99.90
35531;DHT22;21637;53.352;-6.356;2024-01-15T10:06:47;0.80;99.90
35531;DHT22;21637;53.352;-6.356;2024-01-15T10:09:16;0.80;99.90
35531;DHT22;21637;53.352;-6.356;2024-01-15T10:11:44;0.80;99.90
35531;DHT22;21637;53.352;-6.356;2024-01-15T10:14:11;0.80;99.90
35531;DHT22;21637;53.352;-6.356;2024-01-15T10:16:39;0.80;99.90
35531;DHT22;21637;53.352;-6.356;2024-01-15T10:19:04;0.90;99.90
35531;DHT22;21637;53.352;-6.356;2024-01-15T10:21:32;0.90;99.90
35531;DHT22;21637;53.352;-6.356;2024-01-15T10:24:01;0.90;99.90
35531;DHT22;21637;53.352;-6.356;2024-01-15T10:26:28;0.90;99.90
35531;DHT22;21637;53.352;-6.356;2024-01-15T10:28:54;1.00;99.90
35531;DHT22;21637;53.352;-6.356;2024-01-15T10:31:20;0.90;99.90
35531;DHT22;21637;53.352;-6.356;2024-01-15T10:33:50;0.90;99.90
35531;DHT22;21637;53.352;-6.356;2024-01-15T10:36:17;0.90;99.90
35531;DHT22;21637;53.352;-6.356;2024-01-15T10:38:46;0.90;99.90
35531;DHT22;21637;53.352;-6.356;2024-01-15T10:41:12;1.00;99.90
35531;DHT22;21637;53.352;-6.356;2024-01-15T10:43:38;1.00;99.90
35531;DHT22;21637;53.352;-6.356;2024-01-15T10:46:07;1.10;99.90
35531;DHT22;21637;53.352;-6.356;2024-01-15T10:48:33;1.10;99.90
35531;DHT22;21637;53.352;-6.356;2024-01-15T10:51:01;1.10;99.90
35531;DHT22;21637;53.352;-6.356;2024-01-15T10:53:38;1.20;99.90
35531;DHT22;21637;53.352;-6.356;2024-01-15T10:56:07;1.10;99.90
35531;DHT22;21637;53.352;-6.356;2024-01-15T10:58:35;1.20;99.90
35531;DHT22;21637;53.352;-6.356;2024-01-15T11:01:03;1.20;99.90
35531;DHT22;21637;53.352;-6.356;2024-01-15T11:03:30;1.20;99.90
35531;DHT22;21637;53.352;-6.356;2024-01-15T11:05:56;1.20;99.90
35531;DHT22;21637;53.352;-6.356;2024-01-15T11:08:21;1.30;99.90
35531;DHT22;21637;53.352;-6.356;2024-01-15T11:10:53;1.30;99.90
35531;DHT22;21637;53.352;-6.356;2024-01-15T11:13:39;1.30;99.90
35531;DHT22;21637;53.352;-6.356;2024-01-15T11:16:10;1.30;99.90
35531;DHT22;21637;53.352;-6.356;2024-01-15T11:21:22;1.30;99.90
35531;DHT22;21637;53.352;-6.356;2024-01-15T11:23:57;1.40;99.90
35531;DHT22;21637;53.352;-6.356;2024-01-15T11:26:45;1.40;99.90
35531;DHT22;21637;53.352;-6.356;2024-01-15T11:31:56;1.50;99.90
35531;DHT22;21637;53.352;-6.356;2024-01-15T11:34:51;1.50;99.90
35531;DHT22;21637;53.352;-6.356;2024-01-15T11:37:18;1.50;99.90
35531;DHT22;21637;53.352;-6.356;2024-01-15T11:39:44;1.60;99.90
35531;DHT22;21637;53.352;-6.356;2024-01-15T11:42:12;1.60;99.90
35531;DHT22;21637;53.352;-6.356;2024-01-15T11:44:38;1.70;99.90
35531;DHT22;21637;53.352;-6.356;2024-01-15T11:47:09;1.80;99.90
35531;DHT22;21637;53.352;-6.356;2024-01-15T11:50:03;1.80;99.90
35531;DHT22;21637;53.352;-6.356;2024-01-15T11:52:35;1.80;99.90
35531;DHT22;21637;53.352;-6.356;2024-01-15T11:55:11;1.90;99.90
35531;DHT22;21637;53.352;-6.356;2024-01-15T11:57:46;1.90;99.90
35531;DHT22;21637;53.352;-6.356;2024-01-15T12:00:13;1.90;99.90
35531;DHT22;21637;53.352;-6.356;2024-01-15T12:02:44;2.00;99.90
35531;DHT22;21637;53.352;-6.356;2024-01-15T12:05:19;2.00;99.90
35531;DHT22;21637;53.352;-6.356;2024-01-15T12:07:49;2.10;99.90
35531;DHT22;21637;53.352;-6.356;2024-01-15T12:10:19;2.10;99.90
35531;DHT22;21637;53.352;-6.356;2024-01-15T12:15:18;2.20;99.90
35531;DHT22;21637;53.352;-6.356;2024-01-15T12:17:44;2.20;99.90
35531;DHT22;21637;53.352;-6.356;2024-01-15T12:20:11;2.30;99.90
35531;DHT22;21637;53.352;-6.356;2024-01-15T12:22:38;2.30;99.90
35531;DHT22;21637;53.352;-6.356;2024-01-15T12:25:04;2.40;99.90
35531;DHT22;21637;53.352;-6.356;2024-01-15T12:27:30;2.40;99.90
35531;DHT22;21637;53.352;-6.356;2024-01-15T12:29:55;2.40;99.90
35531;DHT22;21637;53.352;-6.356;2024-01-15T12:32:22;2.40;99.90
35531;DHT22;21637;53.352;-6.356;2024-01-15T12:34:49;2.40;99.90
35531;DHT22;21637;53.352;-6.356;2024-01-15T12:37:18;2.40;99.90
35531;DHT22;21637;53.352;-6.356;2024-01-15T12:39:45;2.50;99.90
35531;DHT22;21637;53.352;-6.356;2024-01-15T12:42:10;2.50;99.90
35531;DHT22;21637;53.352;-6.356;2024-01-15T12:44:36;2.50;99.90
35531;DHT22;21637;53.352;-6.356;2024-01-15T12:47:04;2.50;99.90
35531;DHT22;21637;53.352;-6.356;2024-01-15T12:49:30;2.50;99.90
35531;DHT22;21637;53.352;-6.356;2024-01-15T12:51:57;2.50;99.90
35531;DHT22;21637;53.352;-6.356;2024-01-15T12:54:24;2.50;99.90
35531;DHT22;21637;53.352;-6.356;2024-01-15T12:56:51;2.60;99.90
35531;DHT22;21637;53.352;-6.356;2024-01-15T12:59:17;2.60;99.90
35531;DHT22;21637;53.352;-6.356;2024-01-15T13:01:44;2.60;99.90
35531;DHT22;21637;53.352;-6.356;2024-01-15T13:04:10;2.60;99.90
35531;DHT22;21637;53.352;-6.356;2024-01-15T13:06:36;2.70;99.90
35531;DHT22;21637;53.352;-6.356;2024-01-15T13:09:05;2.70;99.90
35531;DHT22;21637;53.352;-6.356;2024-01-15T13:11:34;2.60;99.90
35531;DHT22;21637;53.352;-6.356;2024-01-15T13:13:59;2.70;99.90
35531;DHT22;21637;53.352;-6.356;2024-01-15T13:16:25;2.70;99.90
35531;DHT22;21637;53.352;-6.356;2024-01-15T13:18:55;2.70;99.90
35531;DHT22;21637;53.352;-6.356;2024-01-15T13:21:22;2.70;99.90
35531;DHT22;21637;53.352;-6.356;2024-01-15T13:23:48;2.80;99.90
35531;DHT22;21637;53.352;-6.356;2024-01-15T13:26:13;2.80;99.90
35531;DHT22;21637;53.352;-6.356;2024-01-15T13:28:39;2.70;99.90
35531;DHT22;21637;53.352;-6.356;2024-01-15T13:31:05;2.80;99.90
35531;DHT22;21637;53.352;-6.356;2024-01-15T13:33:31;2.80;99.90
35531;DHT22;21637;53.352;-6.356;2024-01-15T13:35:57;2.80;99.90
35531;DHT22;21637;53.352;-6.356;2024-01-15T13:38:22;2.80;99.90
35531;DHT22;21637;53.352;-6.356;2024-01-15T13:40:49;2.80;99.90
35531;DHT22;21637;53.352;-6.356;2024-01-15T13:43:15;2.80;99.90
35531;DHT22;21637;53.352;-6.356;2024-01-15T13:45:42;2.90;99.90
35531;DHT22;21637;53.352;-6.356;2024-01-15T13:48:07;2.90;99.90
35531;DHT22;21637;53.352;-6.356;2024-01-15T13:50:35;2.90;99.90
35531;DHT22;21637;53.352;-6.356;2024-01-15T13:53:03;2.90;99.90
35531;DHT22;21637;53.352;-6.356;2024-01-15T13:55:30;2.90;99.90
35531;DHT22;21637;53.352;-6.356;2024-01-15T13:57:55;2.90;99.90
35531;DHT22;21637;53.352;-6.356;2024-01-15T14:00:21;2.90;99.90
35531;DHT22;21637;53.352;-6.356;2024-01-15T14:02:48;3.00;99.90
35531;DHT22;21637;53.352;-6.356;2024-01-15T14:05:14;2.90;99.90
35531;DHT22;21637;53.352;-6.356;2024-01-15T14:07:40;2.90;99.90
35531;DHT22;21637;53.352;-6.356;2024-01-15T14:10:07;3.00;99.90
35531;DHT22;21637;53.352;-6.356;2024-01-15T14:12:33;3.00;99.90
35531;DHT22;21637;53.352;-6.356;2024-01-15T14:15:00;3.00;99.90
35531;DHT22;21637;53.352;-6.356;2024-01-15T14:17:27;3.00;99.90
35531;DHT22;21637;53.352;-6.356;2024-01-15T14:19:53;3.00;99.90
35531;DHT22;21637;53.352;-6.356;2024-01-15T14:22:19;3.00;99.90
35531;DHT22;21637;53.352;-6.356;2024-01-15T14:24:44;3.00;99.90
35531;DHT22;21637;53.352;-6.356;2024-01-15T14:27:10;3.10;99.90
35531;DHT22;21637;53.352;-6.356;2024-01-15T14:29:36;3.00;99.90
35531;DHT22;21637;53.352;-6.356;2024-01-15T14:32:02;3.00;99.90
35531;DHT22;21637;53.352;-6.356;2024-01-15T14:34:28;3.00;99.90
35531;DHT22;21637;53.352;-6.356;2024-01-15T14:36:54;3.00;99.90
35531;DHT22;21637;53.352;-6.356;2024-01-15T14:39:21;3.10;99.90
35531;DHT22;21637;53.352;-6.356;2024-01-15T14:41:47;3.00;99.90
35531;DHT22;21637;53.352;-6.356;2024-01-15T14:44:13;3.00;99.90
35531;DHT22;21637;53.352;-6.356;2024-01-15T14:46:39;3.00;99.90
35531;DHT22;21637;53.352;-6.356;2024-01-15T14:49:05;3.00;99.90
35531;DHT22;21637;53.352;-6.356;2024-01-15T14:51:31;3.00;99.90
35531;DHT22;21637;53.352;-6.356;2024-01-15T14:53:56;2.90;99.90
35531;DHT22;21637;53.352;-6.356;2024-01-15T14:56:22;2.90;99.90
35531;DHT22;21637;53.352;-6.356;2024-01-15T14:58:48;2.90;99.90
35531;DHT22;21637;53.352;-6.356;2024-01-15T15:01:14;2.90;99.90
35531;DHT22;21637;53.352;-6.356;2024-01-15T15:03:40;2.90;99.90
35531;DHT22;21637;53.352;-6.356;2024-01-15T15:06:06;2.80;99.90
35531;DHT22;21637;53.352;-6.356;2024-01-15T15:08:34;2.80;99.90
35531;DHT22;21637;53.352;-6.356;2024-01-15T15:11:00;2.80;99.90
35531;DHT22;21637;53.352;-6.356;2024-01-15T15:13:28;2.80;99.90
35531;DHT22;21637;53.352;-6.356;2024-01-15T15:15:53;2.80;99.90
35531;DHT22;21637;53.352;-6.356;2024-01-15T15:18:20;2.80;99.90
35531;DHT22;21637;53.352;-6.356;2024-01-15T15:20:47;2.80;99.90
35531;DHT22;21637;53.352;-6.356;2024-01-15T15:23:13;2.80;99.90
35531;DHT22;21637;53.352;-6.356;2024-01-15T15:25:39;2.70;99.90
35531;DHT22;21637;53.352;-6.356;2024-01-15T15:28:05;2.70;99.90
35531;DHT22;21637;53.352;-6.356;2024-01-15T15:30:31;2.70;99.90
35531;DHT22;21637;53.352;-6.356;2024-01-15T15:32:57;2.70;99.90